createdAt,value
2023-08-15T00:00:57.840Z,14.90
2023-08-15T00:03:25.437Z,14.90
2023-08-15T00:05:52.649Z,14.90
2023-08-15T00:08:20.197Z,14.90
2023-08-15T00:10:47.673Z,14.80
2023-08-15T00:13:14.937Z,14.70
2023-08-15T00:15:42.323Z,14.70
2023-08-15T00:18:09.773Z,14.60
2023-08-15T00:20:37.198Z,14.60
2023-08-15T00:23:04.839Z,14.50
2023-08-15T00:25:32.289Z,14.50
2023-08-15T00:27:59.605Z,14.50
2023-08-15T00:30:26.848Z,14.50
2023-08-15T00:32:54.111Z,14.40
2023-08-15T00:35:21.561Z,14.40
2023-08-15T00:37:49.001Z,14.40
2023-08-15T00:40:16.224Z,14.40
2023-08-15T00:42:43.704Z,14.30
2023-08-15T00:45:11.393Z,14.30
2023-08-15T00:47:39.497Z,14.30
2023-08-15T00:50:10.018Z,14.20
2023-08-15T00:52:37.892Z,14.20
2023-08-15T00:55:05.910Z,14.20
2023-08-15T00:57:33.157Z,14.10
2023-08-15T01:00:00.690Z,14.20
2023-08-15T01:02:28.382Z,14.10
2023-08-15T01:04:55.782Z,14.10
2023-08-15T01:07:23.121Z,14.10
2023-08-15T01:09:50.996Z,14.10
2023-08-15T01:12:45.599Z,14.00
2023-08-15T01:15:21.358Z,13.90
2023-08-15T01:18:30.197Z,13.90
2023-08-15T01:20:58.725Z,13.80
2023-08-15T01:23:43.765Z,13.80
2023-08-15T01:26:11.541Z,13.70
2023-08-15T01:28:42.173Z,13.70
2023-08-15T01:31:13.565Z,13.70
2023-08-15T01:33:50.154Z,13.60
2023-08-15T01:36:24.192Z,13.60
2023-08-15T01:39:01.130Z,13.60
2023-08-15T01:41:32.936Z,13.60
2023-08-15T01:44:02.237Z,13.60
2023-08-15T01:46:29.652Z,13.60
2023-08-15T01:48:59.175Z,13.60
2023-08-15T01:51:26.713Z,13.60
2023-08-15T01:53:54.434Z,13.60
2023-08-15T01:56:21.786Z,13.60
2023-08-15T01:58:48.904Z,13.60
2023-08-15T02:01:16.085Z,13.60
2023-08-15T02:03:43.749Z,13.60
2023-08-15T02:06:11.044Z,13.60
2023-08-15T02:08:38.288Z,13.60
2023-08-15T02:11:05.715Z,13.60
2023-08-15T02:13:34.912Z,13.70
2023-08-15T02:16:03.186Z,13.70
2023-08-15T02:18:31.437Z,13.70
2023-08-15T02:20:59.144Z,13.80
2023-08-15T02:23:26.615Z,13.70
2023-08-15T02:25:54.005Z,13.80
2023-08-15T02:28:21.239Z,13.80
2023-08-15T02:30:48.878Z,13.90
2023-08-15T02:33:16.382Z,13.90
2023-08-15T02:35:43.820Z,13.90
2023-08-15T02:38:11.512Z,14.00
2023-08-15T02:40:38.959Z,14.10
2023-08-15T02:43:06.345Z,14.10
2023-08-15T02:45:33.657Z,14.20
2023-08-15T02:48:01.056Z,14.20
2023-08-15T02:50:29.015Z,14.30
2023-08-15T02:52:56.303Z,14.20
2023-08-15T02:55:23.462Z,14.30
2023-08-15T02:57:51.152Z,14.30
2023-08-15T03:00:18.684Z,14.40
2023-08-15T03:02:46.061Z,14.40
2023-08-15T03:05:13.790Z,14.40
2023-08-15T03:07:41.343Z,14.40
2023-08-15T03:10:09.218Z,14.40
2023-08-15T03:12:36.895Z,14.40
2023-08-15T03:15:06.732Z,14.50
2023-08-15T03:17:34.888Z,14.50
2023-08-15T03:20:02.267Z,14.60
2023-08-15T03:22:29.845Z,14.50
2023-08-15T03:24:59.757Z,14.50
2023-08-15T03:27:27.242Z,14.50
2023-08-15T03:29:55.626Z,14.40
2023-08-15T03:32:23.650Z,14.40
2023-08-15T03:34:51.016Z,14.40
2023-08-15T03:37:18.431Z,14.50
2023-08-15T03:39:46.085Z,14.50
2023-08-15T03:42:13.803Z,14.60
2023-08-15T03:44:41.563Z,14.50
2023-08-15T03:47:09.266Z,14.60
2023-08-15T03:49:36.726Z,14.60
2023-08-15T03:52:04.124Z,14.70
2023-08-15T03:54:32.161Z,14.70
2023-08-15T03:56:59.764Z,14.80
2023-08-15T03:59:27.366Z,14.90
2023-08-15T04:01:59.297Z,15.00
2023-08-15T04:04:29.894Z,15.00
2023-08-15T04:06:57.341Z,15.00
2023-08-15T04:09:25.021Z,15.00
2023-08-15T04:11:52.841Z,15.10
2023-08-15T04:14:20.342Z,15.10
2023-08-15T04:16:49.304Z,15.20
2023-08-15T04:19:17.632Z,15.20
2023-08-15T04:21:44.992Z,15.20
2023-08-15T04:24:13.234Z,15.10
2023-08-15T04:26:41.408Z,15.20
2023-08-15T04:29:12.189Z,15.20
2023-08-15T04:31:39.939Z,15.10
2023-08-15T04:34:08.968Z,15.00
2023-08-15T04:36:38.188Z,15.10
2023-08-15T04:39:08.048Z,15.10
2023-08-15T04:41:35.876Z,15.20
2023-08-15T04:44:03.897Z,15.30
2023-08-15T04:46:31.970Z,15.30
2023-08-15T04:49:00.767Z,15.30
2023-08-15T04:51:29.279Z,15.30
2023-08-15T04:53:57.586Z,15.20
2023-08-15T04:56:29.278Z,15.30
2023-08-15T04:58:58.850Z,15.20
2023-08-15T05:01:27.192Z,15.30
2023-08-15T05:03:58.184Z,15.40
2023-08-15T05:06:26.205Z,15.30
2023-08-15T05:08:54.602Z,15.40
2023-08-15T05:11:24.943Z,15.40
2023-08-15T05:13:53.224Z,15.50
2023-08-15T05:16:21.953Z,15.60
2023-08-15T05:18:50.412Z,15.60
2023-08-15T05:21:20.481Z,15.80
2023-08-15T05:23:49.302Z,15.70
2023-08-15T05:26:18.134Z,15.70
2023-08-15T05:28:54.870Z,15.90
2023-08-15T05:31:23.010Z,16.10
2023-08-15T05:33:51.224Z,16.10
2023-08-15T05:36:19.714Z,16.20
2023-08-15T05:38:50.675Z,16.30
2023-08-15T05:41:18.934Z,16.40
2023-08-15T05:43:47.313Z,16.40
2023-08-15T05:46:15.836Z,16.50
2023-08-15T05:48:47.217Z,16.60
2023-08-15T05:51:15.204Z,16.50
2023-08-15T05:53:43.670Z,16.40
2023-08-15T05:56:12.092Z,16.70
2023-08-15T05:58:42.365Z,16.80
2023-08-15T06:01:10.402Z,17.20
2023-08-15T06:03:51.980Z,17.80
2023-08-15T06:06:23.036Z,18.50
2023-08-15T06:08:51.829Z,19.80
2023-08-15T06:11:20.237Z,22.00
2023-08-15T06:13:49.624Z,23.00
2023-08-15T06:16:18.308Z,23.00
2023-08-15T06:18:46.085Z,23.60
2023-08-15T06:21:14.508Z,23.50
2023-08-15T06:23:49.542Z,22.00
2023-08-15T06:26:18.104Z,21.30
2023-08-15T06:28:46.943Z,21.00
2023-08-15T06:31:14.525Z,20.70
2023-08-15T06:33:42.819Z,20.20
2023-08-15T06:36:11.592Z,20.30
2023-08-15T06:38:39.856Z,20.10
2023-08-15T06:41:08.334Z,20.30
2023-08-15T06:43:37.049Z,20.00
2023-08-15T06:46:06.263Z,20.00
2023-08-15T06:48:34.097Z,19.50
2023-08-15T06:51:02.382Z,19.30
2023-08-15T06:53:31.053Z,19.40
2023-08-15T06:56:00.260Z,19.70
2023-08-15T06:58:29.440Z,19.80
2023-08-15T07:01:02.699Z,20.00
2023-08-15T07:03:34.426Z,20.10
2023-08-15T07:06:06.131Z,20.20
2023-08-15T07:08:34.406Z,20.20
2023-08-15T07:11:06.875Z,20.20
2023-08-15T07:13:36.839Z,21.10
2023-08-15T07:16:05.147Z,23.60
2023-08-15T07:18:36.546Z,26.00
2023-08-15T07:21:12.373Z,25.40
2023-08-15T07:23:52.603Z,24.90
2023-08-15T07:26:26.006Z,25.00
2023-08-15T07:29:04.954Z,26.00
2023-08-15T07:31:39.758Z,26.30
2023-08-15T07:34:08.120Z,25.80
2023-08-15T07:36:37.289Z,26.00
2023-08-15T07:39:08.469Z,25.30
2023-08-15T07:41:37.726Z,25.00
2023-08-15T07:44:06.371Z,26.50
2023-08-15T07:46:34.783Z,28.90
2023-08-15T07:49:04.400Z,29.00
2023-08-15T07:51:33.225Z,29.70
2023-08-15T07:54:02.022Z,32.30
2023-08-15T07:56:35.585Z,31.20
2023-08-15T07:59:05.733Z,32.40
2023-08-15T08:01:33.777Z,34.30
2023-08-15T08:04:03.269Z,32.70
2023-08-15T08:06:40.297Z,31.40
2023-08-15T08:09:11.471Z,32.40
2023-08-15T08:11:40.251Z,32.10
2023-08-15T08:14:15.171Z,31.70
2023-08-15T08:16:43.380Z,31.80
2023-08-15T08:19:13.305Z,30.50
2023-08-15T08:21:41.860Z,32.50
2023-08-15T08:24:10.322Z,32.60
2023-08-15T08:26:39.343Z,34.20
2023-08-15T08:29:10.485Z,35.00
2023-08-15T08:31:41.839Z,32.00
2023-08-15T08:34:15.887Z,31.80
2023-08-15T08:36:48.808Z,33.50
2023-08-15T08:39:31.335Z,34.70
2023-08-15T08:42:06.630Z,34.60
2023-08-15T08:44:36.007Z,32.60
2023-08-15T08:47:06.646Z,31.60
2023-08-15T08:49:40.544Z,29.70
2023-08-15T08:52:15.362Z,30.50
2023-08-15T08:54:56.553Z,30.80
2023-08-15T08:57:31.058Z,30.20
2023-08-15T09:00:02.965Z,29.10
2023-08-15T09:02:32.527Z,27.70
2023-08-15T09:05:02.472Z,27.40
2023-08-15T09:07:34.871Z,27.80
2023-08-15T09:10:03.239Z,26.60
2023-08-15T09:12:41.516Z,25.70
2023-08-15T09:15:11.938Z,25.20
2023-08-15T09:17:45.178Z,25.70
2023-08-15T09:20:20.592Z,25.60
2023-08-15T09:22:52.839Z,25.30
2023-08-15T09:25:27.027Z,25.30
2023-08-15T09:28:06.939Z,24.90
2023-08-15T09:30:35.444Z,24.90
2023-08-15T09:33:09.542Z,24.80
2023-08-15T09:35:45.553Z,25.10
2023-08-15T09:38:19.610Z,25.20
2023-08-15T09:40:50.431Z,25.60
2023-08-15T09:43:21.479Z,25.60
2023-08-15T09:45:52.042Z,25.80
2023-08-15T09:48:22.004Z,25.50
2023-08-15T09:50:57.735Z,25.90
2023-08-15T09:53:27.370Z,26.00
2023-08-15T09:55:56.560Z,25.80
2023-08-15T09:58:36.923Z,26.30
2023-08-15T10:01:15.172Z,26.60
2023-08-15T10:03:56.000Z,25.30
2023-08-15T10:06:34.920Z,25.00
2023-08-15T10:09:16.704Z,24.90
2023-08-15T10:11:56.246Z,25.10
2023-08-15T10:14:30.314Z,25.10
2023-08-15T10:20:41.679Z,25.40
2023-08-15T10:23:40.770Z,25.20
2023-08-15T10:26:17.969Z,25.30
2023-08-15T10:29:05.961Z,24.50
2023-08-15T10:31:52.337Z,24.50
2023-08-15T10:34:24.330Z,24.70
2023-08-15T10:37:38.571Z,25.00
2023-08-15T10:40:15.171Z,25.10
2023-08-15T10:43:08.081Z,25.60
2023-08-15T10:46:07.276Z,25.10
2023-08-15T10:49:03.740Z,24.60
2023-08-15T10:51:41.688Z,24.50
2023-08-15T10:54:17.095Z,25.00
2023-08-15T10:56:48.497Z,25.30
2023-08-15T10:59:20.506Z,25.40
2023-08-15T11:01:50.806Z,25.20
2023-08-15T11:04:25.981Z,25.30
2023-08-15T11:06:57.052Z,24.90
2023-08-15T11:09:36.830Z,24.40
2023-08-15T11:12:22.840Z,24.40
2023-08-15T11:14:57.279Z,24.90
2023-08-15T11:17:40.982Z,25.00
2023-08-15T11:20:16.422Z,25.10
2023-08-15T11:23:04.376Z,25.40
2023-08-15T11:26:02.241Z,25.70
2023-08-15T11:28:42.439Z,25.50
2023-08-15T11:31:22.955Z,25.40
2023-08-15T11:34:00.212Z,24.90
2023-08-15T11:36:35.206Z,24.50
2023-08-15T11:39:22.031Z,24.90
2023-08-15T11:42:02.651Z,25.00
2023-08-15T11:44:33.512Z,25.00
2023-08-15T11:47:05.894Z,24.90
2023-08-15T11:49:46.502Z,25.30
2023-08-15T11:52:29.947Z,25.10
2023-08-15T11:55:16.242Z,25.20
2023-08-15T11:58:05.326Z,25.60
2023-08-15T12:00:39.443Z,25.30
2023-08-15T12:03:12.265Z,25.00
2023-08-15T12:05:46.722Z,25.00
2023-08-15T12:08:18.554Z,24.70
2023-08-15T12:10:47.974Z,24.10
2023-08-15T12:13:15.775Z,24.30
2023-08-15T12:15:44.398Z,24.30
2023-08-15T12:18:15.392Z,24.20
2023-08-15T12:20:48.400Z,24.10
2023-08-15T12:23:43.553Z,24.30
2023-08-15T12:26:21.300Z,24.10
2023-08-15T12:28:50.559Z,23.70
2023-08-15T12:31:19.106Z,23.80
2023-08-15T12:33:48.256Z,24.20
2023-08-15T12:36:19.067Z,24.10
2023-08-15T12:38:48.405Z,24.40
2023-08-15T12:41:19.953Z,24.70
2023-08-15T12:43:54.795Z,24.70
2023-08-15T12:46:26.086Z,24.60
2023-08-15T12:49:01.769Z,24.30
2023-08-15T12:51:40.133Z,24.30
2023-08-15T12:54:31.503Z,24.10
2023-08-15T12:57:06.653Z,24.40
2023-08-15T12:59:35.213Z,24.60
2023-08-15T13:02:06.093Z,24.10
2023-08-15T13:04:46.858Z,24.10
2023-08-15T13:07:21.656Z,23.60
2023-08-15T13:09:55.813Z,23.50
2023-08-15T13:12:25.190Z,23.40
2023-08-15T13:15:00.166Z,23.50
2023-08-15T13:17:29.408Z,23.30
2023-08-15T13:20:13.206Z,23.40
2023-08-15T13:22:48.143Z,23.50
2023-08-15T13:25:24.093Z,23.50
2023-08-15T13:27:55.615Z,23.20
2023-08-15T13:30:32.140Z,22.90
2023-08-15T13:33:04.612Z,22.80
2023-08-15T13:35:32.232Z,22.90
2023-08-15T13:38:00.110Z,22.90
2023-08-15T13:40:30.354Z,22.70
2023-08-15T13:43:00.609Z,22.40
2023-08-15T13:45:29.362Z,22.50
2023-08-15T13:48:08.496Z,22.10
2023-08-15T13:50:43.930Z,22.20
2023-08-15T13:53:12.908Z,22.20
2023-08-15T13:55:48.186Z,22.10
2023-08-15T13:58:18.109Z,21.90
2023-08-15T14:00:53.524Z,21.90
2023-08-15T14:03:24.432Z,21.90
2023-08-15T14:06:00.834Z,21.80
2023-08-15T14:11:08.163Z,21.70
2023-08-15T14:13:43.109Z,21.80
2023-08-15T14:16:21.142Z,21.50
2023-08-15T14:18:59.202Z,21.40
2023-08-15T14:21:34.871Z,21.30
2023-08-15T14:24:08.631Z,21.30
2023-08-15T14:26:41.710Z,21.50
2023-08-15T14:29:13.482Z,21.60
2023-08-15T14:31:43.845Z,21.60
2023-08-15T14:34:12.449Z,21.30
2023-08-15T14:37:03.454Z,21.20
2023-08-15T14:39:50.826Z,21.30
2023-08-15T14:42:19.807Z,21.10
2023-08-15T14:44:54.770Z,21.00
2023-08-15T14:47:33.404Z,20.80
2023-08-15T14:50:06.386Z,20.50
2023-08-15T14:52:43.666Z,20.70
2023-08-15T14:55:16.942Z,20.70
2023-08-15T14:57:50.864Z,20.50
2023-08-15T15:00:19.442Z,20.70
2023-08-15T15:02:49.855Z,20.60
2023-08-15T15:05:20.905Z,20.50
2023-08-15T15:08:03.001Z,20.70
2023-08-15T15:10:42.795Z,20.60
2023-08-15T15:13:20.551Z,20.60
2023-08-15T15:15:54.347Z,20.40
2023-08-15T15:18:30.317Z,20.50
2023-08-15T15:21:03.967Z,20.70
2023-08-15T15:23:35.185Z,20.80
2023-08-15T15:26:17.004Z,20.60
2023-08-15T15:28:58.185Z,20.70
2023-08-15T15:31:34.734Z,20.60
2023-08-15T15:34:07.939Z,20.70
2023-08-15T15:36:41.102Z,20.40
2023-08-15T15:39:16.868Z,20.30
2023-08-15T15:41:46.460Z,20.40
2023-08-15T15:44:17.325Z,20.30
2023-08-15T15:46:54.671Z,20.30
2023-08-15T15:49:24.867Z,20.40
2023-08-15T15:51:53.954Z,20.40
2023-08-15T15:54:29.671Z,20.40
2023-08-15T15:56:59.343Z,20.50
2023-08-15T15:59:28.957Z,20.30
2023-08-15T16:02:02.234Z,20.40
2023-08-15T16:04:32.020Z,20.40
2023-08-15T16:07:10.577Z,20.30
2023-08-15T16:09:52.560Z,20.20
2023-08-15T16:12:38.086Z,20.10
2023-08-15T16:15:09.786Z,20.20
2023-08-15T16:17:45.201Z,19.90
2023-08-15T16:20:19.741Z,19.60
2023-08-15T16:25:40.780Z,19.40
2023-08-15T16:28:14.207Z,19.50
2023-08-15T16:30:57.036Z,19.50
2023-08-15T16:33:26.453Z,19.30
2023-08-15T16:35:54.757Z,19.10
2023-08-15T16:38:25.954Z,19.20
2023-08-15T16:40:59.886Z,19.20
2023-08-15T16:43:31.103Z,19.40
2023-08-15T16:46:04.137Z,19.10
2023-08-15T16:48:34.786Z,19.00
2023-08-15T16:51:03.591Z,18.90
2023-08-15T16:53:31.891Z,18.90
2023-08-15T16:56:01.825Z,18.90
2023-08-15T17:01:26.764Z,18.80
2023-08-15T17:03:59.061Z,18.80
2023-08-15T17:06:29.329Z,18.80
2023-08-15T17:09:08.830Z,18.70
2023-08-15T17:11:41.153Z,18.50
2023-08-15T17:14:12.696Z,18.40
2023-08-15T17:16:44.743Z,18.40
2023-08-15T17:19:18.484Z,18.20
2023-08-15T17:21:53.970Z,18.20
2023-08-15T17:24:30.140Z,18.10
2023-08-15T17:26:58.400Z,18.10
2023-08-15T17:29:29.573Z,18.10
2023-08-15T17:31:57.784Z,18.00
2023-08-15T17:34:35.376Z,18.00
2023-08-15T17:37:12.578Z,18.00
2023-08-15T17:39:49.473Z,18.10
2023-08-15T17:42:32.625Z,18.20
2023-08-15T17:45:00.588Z,18.30
2023-08-15T17:47:28.948Z,18.30
2023-08-15T17:49:58.320Z,18.20
2023-08-15T17:52:28.056Z,18.10
2023-08-15T17:54:58.370Z,18.30
2023-08-15T17:57:28.660Z,18.20
2023-08-15T17:59:57.556Z,18.10
2023-08-15T18:02:27.710Z,18.10
2023-08-15T18:04:57.123Z,18.10
2023-08-15T18:07:25.292Z,18.10
2023-08-15T18:09:53.428Z,18.00
2023-08-15T18:12:26.847Z,17.80
2023-08-15T18:14:59.475Z,17.70
2023-08-15T18:17:34.330Z,17.70
2023-08-15T18:20:11.689Z,17.60
2023-08-15T18:22:59.688Z,17.50
2023-08-15T18:25:28.485Z,17.40
2023-08-15T18:27:55.759Z,17.50
2023-08-15T18:30:22.934Z,17.50
2023-08-15T18:32:50.429Z,17.50
2023-08-15T18:35:17.702Z,17.40
2023-08-15T18:37:47.446Z,17.40
2023-08-15T18:40:19.191Z,17.50
2023-08-15T18:42:48.333Z,17.50
2023-08-15T18:45:16.284Z,17.50
2023-08-15T18:47:43.806Z,17.60
2023-08-15T18:50:12.853Z,17.50
2023-08-15T18:52:41.036Z,17.50
2023-08-15T18:55:09.520Z,17.50
2023-08-15T18:57:37.043Z,17.60
2023-08-15T19:00:06.523Z,17.50
2023-08-15T19:02:34.833Z,17.50
2023-08-15T19:05:02.616Z,17.60
2023-08-15T19:07:29.964Z,17.50
2023-08-15T19:09:57.868Z,17.50
2023-08-15T19:12:26.678Z,17.50
2023-08-15T19:14:56.482Z,17.60
2023-08-15T19:17:24.447Z,17.50
2023-08-15T19:19:51.804Z,17.40
2023-08-15T19:22:19.194Z,17.40
2023-08-15T19:24:46.678Z,17.40
2023-08-15T19:27:14.102Z,17.40
2023-08-15T19:29:41.611Z,17.40
2023-08-15T19:32:09.593Z,17.40
2023-08-15T19:34:47.413Z,17.30
2023-08-15T19:37:23.237Z,17.30
2023-08-15T19:39:58.972Z,17.30
2023-08-15T19:42:27.005Z,17.30
2023-08-15T19:44:54.325Z,17.20
2023-08-15T19:47:21.757Z,17.20
2023-08-15T19:49:49.419Z,17.20
2023-08-15T19:52:18.133Z,17.20
2023-08-15T19:54:45.816Z,17.20
2023-08-15T19:57:13.150Z,17.20
2023-08-15T19:59:41.192Z,17.20
2023-08-15T20:02:08.748Z,17.10
2023-08-15T20:04:36.321Z,17.10
2023-08-15T20:07:04.278Z,17.00
2023-08-15T20:09:31.812Z,17.10
2023-08-15T20:11:59.481Z,17.00
2023-08-15T20:14:29.397Z,17.00
2023-08-15T20:16:56.955Z,17.00
2023-08-15T20:19:24.427Z,17.10
2023-08-15T20:21:52.184Z,17.00
2023-08-15T20:24:20.312Z,17.00
2023-08-15T20:26:47.946Z,17.10
2023-08-15T20:29:16.081Z,17.00
2023-08-15T20:31:43.507Z,17.00
2023-08-15T20:34:11.761Z,16.90
2023-08-15T20:36:39.005Z,16.90
2023-08-15T20:39:06.600Z,16.90
2023-08-15T20:41:35.493Z,16.90
2023-08-15T20:44:03.104Z,16.90
2023-08-15T20:46:41.326Z,17.00
2023-08-15T20:49:09.928Z,16.90
2023-08-15T20:51:38.344Z,17.00
2023-08-15T20:54:05.645Z,17.00
2023-08-15T20:56:34.272Z,16.90
2023-08-15T20:59:03.260Z,16.90
2023-08-15T21:01:30.763Z,16.90
2023-08-15T21:03:58.107Z,16.90
2023-08-15T21:06:26.498Z,17.00
2023-08-15T21:08:53.902Z,16.90
2023-08-15T21:11:21.430Z,16.90
2023-08-15T21:13:49.183Z,16.90
2023-08-15T21:16:16.398Z,16.90
2023-08-15T21:18:43.938Z,16.90
2023-08-15T21:21:11.771Z,16.90
2023-08-15T21:23:39.395Z,16.90
2023-08-15T21:26:07.007Z,16.90
2023-08-15T21:28:34.294Z,16.90
2023-08-15T21:31:01.661Z,16.90
2023-08-15T21:33:29.143Z,17.00
2023-08-15T21:35:56.473Z,17.00
2023-08-15T21:38:23.786Z,17.00
2023-08-15T21:40:51.611Z,16.90
2023-08-15T21:43:19.345Z,17.00
2023-08-15T21:45:46.579Z,17.00
2023-08-15T21:48:14.131Z,17.00
2023-08-15T21:50:41.426Z,17.00
2023-08-15T21:53:08.715Z,17.10
2023-08-15T21:55:36.131Z,17.10
2023-08-15T21:58:03.521Z,17.10
2023-08-15T22:00:30.957Z,17.10
2023-08-15T22:02:58.748Z,17.20
2023-08-15T22:05:26.973Z,17.10
2023-08-15T22:07:54.411Z,17.10
2023-08-15T22:10:23.765Z,17.20
2023-08-15T22:12:51.967Z,17.20
2023-08-15T22:15:20.352Z,17.20
2023-08-15T22:17:57.194Z,17.20
2023-08-15T22:20:28.279Z,17.20
2023-08-15T22:22:55.741Z,17.30
2023-08-15T22:25:23.960Z,17.20
2023-08-15T22:27:51.661Z,17.20
2023-08-15T22:30:19.160Z,17.30
2023-08-15T22:32:46.422Z,17.30
2023-08-15T22:35:13.711Z,17.40
2023-08-15T22:37:41.245Z,17.30
2023-08-15T22:40:09.045Z,17.30
2023-08-15T22:42:36.293Z,17.40
2023-08-15T22:45:04.363Z,17.40
2023-08-15T22:47:31.641Z,17.30
2023-08-15T22:49:58.957Z,17.30
2023-08-15T22:52:26.730Z,17.40
2023-08-15T22:54:54.177Z,17.30
2023-08-15T22:57:21.861Z,17.30
2023-08-15T22:59:49.505Z,17.30
2023-08-15T23:02:16.810Z,17.20
2023-08-15T23:04:43.995Z,17.30
2023-08-15T23:07:11.501Z,17.30
2023-08-15T23:09:38.886Z,17.30
2023-08-15T23:12:06.337Z,17.20
2023-08-15T23:14:33.611Z,17.20
2023-08-15T23:17:00.991Z,17.30
2023-08-15T23:19:28.274Z,17.20
2023-08-15T23:21:55.453Z,17.20
2023-08-15T23:24:22.916Z,17.30
2023-08-15T23:26:50.245Z,17.30
2023-08-15T23:29:17.510Z,17.30
2023-08-15T23:31:44.907Z,17.30
2023-08-15T23:34:12.249Z,17.30
2023-08-15T23:36:39.837Z,17.30
2023-08-15T23:39:07.777Z,17.30
2023-08-15T23:41:35.054Z,17.30
2023-08-15T23:44:02.196Z,17.40
2023-08-15T23:46:30.071Z,17.40
2023-08-15T23:48:57.439Z,17.40
2023-08-15T23:51:24.848Z,17.40
2023-08-15T23:53:52.324Z,17.40
2023-08-15T23:56:19.679Z,17.40
2023-08-15T23:58:49.043Z,17.40
